sensor_id;sensor_type;location;lat;lon;timestamp;pressure;altitude;pressure_sealevel;temperature;humidity
76122;BME280;70471;53.200;6.080;2023-06-22T00:00:31;102052.41;;;24.00;46.31
76122;BME280;70471;53.200;6.080;2023-06-22T00:05:23;102049.63;;;24.00;46.10
76122;BME280;70471;53.200;6.080;2023-06-22T00:10:14;102043.25;;;24.00;46.22
76122;BME280;70471;53.200;6.080;2023-06-22T00:15:08;102036.31;;;23.97;46.81
76122;BME280;70471;53.200;6.080;2023-06-22T00:19:59;102045.81;;;23.96;46.74
76122;BME280;70471;53.200;6.080;2023-06-22T00:24:51;102050.56;;;23.95;46.94
76122;BME280;70471;53.200;6.080;2023-06-22T00:29:42;102054.44;;;23.94;46.68
76122;BME280;70471;53.200;6.080;2023-06-22T00:34:35;102055.88;;;23.92;46.81
76122;BME280;70471;53.200;6.080;2023-06-22T00:39:26;102068.16;;;23.91;46.85
76122;BME280;70471;53.200;6.080;2023-06-22T00:44:18;102078.72;;;23.89;46.61
76122;BME280;70471;53.200;6.080;2023-06-22T00:49:09;102085.97;;;23.90;46.81
76122;BME280;70471;53.200;6.080;2023-06-22T00:54:02;102085.16;;;23.89;46.74
76122;BME280;70471;53.200;6.080;2023-06-22T00:58:55;102085.75;;;23.86;46.68
76122;BME280;70471;53.200;6.080;2023-06-22T01:03:47;102094.09;;;23.86;47.02
76122;BME280;70471;53.200;6.080;2023-06-22T01:08:47;102084.88;;;23.86;46.88
76122;BME280;70471;53.200;6.080;2023-06-22T01:13:45;102083.25;;;23.85;46.70
76122;BME280;70471;53.200;6.080;2023-06-22T01:18:42;102077.69;;;23.85;46.75
76122;BME280;70471;53.200;6.080;2023-06-22T01:23:48;102075.50;;;23.82;46.87
76122;BME280;70471;53.200;6.080;2023-06-22T01:28:45;102072.72;;;23.82;46.77
76122;BME280;70471;53.200;6.080;2023-06-22T01:33:39;102054.34;;;23.81;46.86
76122;BME280;70471;53.200;6.080;2023-06-22T01:38:32;102048.22;;;23.78;46.99
76122;BME280;70471;53.200;6.080;2023-06-22T01:43:26;102049.94;;;23.74;47.24
76122;BME280;70471;53.200;6.080;2023-06-22T01:48:20;102044.38;;;23.74;47.01
76122;BME280;70471;53.200;6.080;2023-06-22T01:53:12;102046.63;;;23.72;47.09
76122;BME280;70471;53.200;6.080;2023-06-22T01:58:04;102044.97;;;23.71;47.02
76122;BME280;70471;53.200;6.080;2023-06-22T02:02:59;102045.25;;;23.70;47.31
76122;BME280;70471;53.200;6.080;2023-06-22T02:07:56;102046.41;;;23.69;47.12
76122;BME280;70471;53.200;6.080;2023-06-22T02:12:54;102036.91;;;23.70;47.25
76122;BME280;70471;53.200;6.080;2023-06-22T02:17:46;102040.00;;;23.68;47.44
76122;BME280;70471;53.200;6.080;2023-06-22T02:22:38;102030.00;;;23.67;47.27
76122;BME280;70471;53.200;6.080;2023-06-22T02:27:31;102025.56;;;23.66;47.22
76122;BME280;70471;53.200;6.080;2023-06-22T02:32:23;102026.69;;;23.65;47.23
76122;BME280;70471;53.200;6.080;2023-06-22T02:37:14;102021.41;;;23.64;47.17
76122;BME280;70471;53.200;6.080;2023-06-22T02:42:06;102026.47;;;23.61;47.07
76122;BME280;70471;53.200;6.080;2023-06-22T02:46:59;102030.06;;;23.62;47.36
76122;BME280;70471;53.200;6.080;2023-06-22T02:51:50;102039.56;;;23.61;47.42
76122;BME280;70471;53.200;6.080;2023-06-22T02:56:42;102043.44;;;23.60;47.16
76122;BME280;70471;53.200;6.080;2023-06-22T03:01:34;102040.13;;;23.58;47.02
76122;BME280;70471;53.200;6.080;2023-06-22T03:06:31;102057.94;;;23.57;46.95
76122;BME280;70471;53.200;6.080;2023-06-22T03:11:22;102055.16;;;23.57;47.17
76122;BME280;70471;53.200;6.080;2023-06-22T03:16:14;102043.22;;;23.56;46.99
76122;BME280;70471;53.200;6.080;2023-06-22T03:21:05;102036.84;;;23.56;47.08
76122;BME280;70471;53.200;6.080;2023-06-22T03:25:58;102050.19;;;23.54;46.90
76122;BME280;70471;53.200;6.080;2023-06-22T03:30:49;102043.28;;;23.51;46.84
76122;BME280;70471;53.200;6.080;2023-06-22T03:35:41;102038.84;;;23.50;46.70
76122;BME280;70471;53.200;6.080;2023-06-22T03:40:32;102048.00;;;23.51;46.62
76122;BME280;70471;53.200;6.080;2023-06-22T03:45:25;102045.50;;;23.49;46.85
76122;BME280;70471;53.200;6.080;2023-06-22T03:50:16;102040.25;;;23.48;46.96
76122;BME280;70471;53.200;6.080;2023-06-22T03:55:10;102045.81;;;23.48;46.89
76122;BME280;70471;53.200;6.080;2023-06-22T04:00:02;102028.59;;;23.46;46.89
76122;BME280;70471;53.200;6.080;2023-06-22T04:04:57;102025.28;;;23.43;46.74
76122;BME280;70471;53.200;6.080;2023-06-22T04:09:48;102025.59;;;23.42;46.86
76122;BME280;70471;53.200;6.080;2023-06-22T04:14:40;102034.75;;;23.42;47.01
76122;BME280;70471;53.200;6.080;2023-06-22T04:19:31;102038.13;;;23.39;47.08
76122;BME280;70471;53.200;6.080;2023-06-22T04:24:24;102038.13;;;23.39;46.95
76122;BME280;70471;53.200;6.080;2023-06-22T04:29:16;102039.78;;;23.40;46.91
76122;BME280;70471;53.200;6.080;2023-06-22T04:34:07;102033.38;;;23.40;46.95
76122;BME280;70471;53.200;6.080;2023-06-22T04:38:59;102021.44;;;23.39;46.96
76122;BME280;70471;53.200;6.080;2023-06-22T04:43:52;102020.91;;;23.37;46.78
76122;BME280;70471;53.200;6.080;2023-06-22T04:48:44;102019.25;;;23.36;46.93
76122;BME280;70471;53.200;6.080;2023-06-22T04:53:35;102002.56;;;23.36;47.11
76122;BME280;70471;53.200;6.080;2023-06-22T04:58:27;102006.47;;;23.35;47.08
76122;BME280;70471;53.200;6.080;2023-06-22T05:03:24;102029.03;;;23.34;47.03
76122;BME280;70471;53.200;6.080;2023-06-22T05:08:17;102018.72;;;23.34;47.17
76122;BME280;70471;53.200;6.080;2023-06-22T05:13:08;102019.53;;;23.35;47.11
76122;BME280;70471;53.200;6.080;2023-06-22T05:18:00;102026.25;;;23.34;47.33
76122;BME280;70471;53.200;6.080;2023-06-22T05:22:56;102031.50;;;23.35;47.48
76122;BME280;70471;53.200;6.080;2023-06-22T05:27:48;102036.22;;;23.35;47.46
76122;BME280;70471;53.200;6.080;2023-06-22T05:32:42;102032.03;;;23.37;47.42
76122;BME280;70471;53.200;6.080;2023-06-22T05:37:34;102022.59;;;23.38;47.53
76122;BME280;70471;53.200;6.080;2023-06-22T05:42:27;102021.44;;;23.39;47.51
76122;BME280;70471;53.200;6.080;2023-06-22T05:47:18;102027.59;;;23.36;47.45
76122;BME280;70471;53.200;6.080;2023-06-22T05:52:10;102024.50;;;23.38;47.72
76122;BME280;70471;53.200;6.080;2023-06-22T05:57:01;102030.94;;;23.38;47.75
76122;BME280;70471;53.200;6.080;2023-06-22T06:01:54;102022.25;;;23.40;47.71
76122;BME280;70471;53.200;6.080;2023-06-22T06:06:46;102028.66;;;23.40;47.86
76122;BME280;70471;53.200;6.080;2023-06-22T06:11:39;102010.38;;;23.34;47.63
76122;BME280;70471;53.200;6.080;2023-06-22T06:16:31;102013.88;;;23.45;47.72
76122;BME280;70471;53.200;6.080;2023-06-22T06:21:24;102013.03;;;23.44;47.82
76122;BME280;70471;53.200;6.080;2023-06-22T06:26:15;102028.06;;;23.43;47.90
76122;BME280;70471;53.200;6.080;2023-06-22T06:31:07;102053.34;;;23.47;47.99
76122;BME280;70471;53.200;6.080;2023-06-22T06:35:59;102041.69;;;23.45;47.96
76122;BME280;70471;53.200;6.080;2023-06-22T06:40:54;102037.75;;;23.46;48.34
76122;BME280;70471;53.200;6.080;2023-06-22T06:45:45;102033.88;;;23.47;48.16
76122;BME280;70471;53.200;6.080;2023-06-22T06:50:37;102035.53;;;23.48;48.10
76122;BME280;70471;53.200;6.080;2023-06-22T06:55:28;102035.25;;;23.50;48.29
76122;BME280;70471;53.200;6.080;2023-06-22T07:00:24;102046.38;;;23.50;48.39
76122;BME280;70471;53.200;6.080;2023-06-22T07:05:16;102032.97;;;23.52;48.13
76122;BME280;70471;53.200;6.080;2023-06-22T07:10:08;102035.25;;;23.50;48.44
76122;BME280;70471;53.200;6.080;2023-06-22T07:15:02;102033.03;;;23.47;48.28
76122;BME280;70471;53.200;6.080;2023-06-22T07:19:55;102038.25;;;23.53;48.75
76122;BME280;70471;53.200;6.080;2023-06-22T07:24:46;102025.16;;;23.54;48.74
76122;BME280;70471;53.200;6.080;2023-06-22T07:29:38;102026.31;;;23.53;48.67
76122;BME280;70471;53.200;6.080;2023-06-22T07:34:30;102009.00;;;23.56;48.75
76122;BME280;70471;53.200;6.080;2023-06-22T07:39:23;102015.41;;;23.56;48.68
76122;BME280;70471;53.200;6.080;2023-06-22T07:44:16;102005.38;;;23.55;48.77
76122;BME280;70471;53.200;6.080;2023-06-22T07:49:08;102002.59;;;23.55;48.97
76122;BME280;70471;53.200;6.080;2023-06-22T07:53:59;102006.22;;;23.56;48.91
76122;BME280;70471;53.200;6.080;2023-06-22T07:58:52;101997.03;;;23.55;49.21
76122;BME280;70471;53.200;6.080;2023-06-22T08:03:45;101995.84;;;23.61;48.99
76122;BME280;70471;53.200;6.080;2023-06-22T08:08:36;101980.53;;;23.64;48.81
76122;BME280;70471;53.200;6.080;2023-06-22T08:13:28;101996.31;;;23.69;48.79
76122;BME280;70471;53.200;6.080;2023-06-22T08:18:21;102001.59;;;23.70;48.56
76122;BME280;70471;53.200;6.080;2023-06-22T08:23:13;101989.31;;;23.71;48.71
76122;BME280;70471;53.200;6.080;2023-06-22T08:28:04;101987.69;;;23.70;48.46
76122;BME280;70471;53.200;6.080;2023-06-22T08:32:56;101996.78;;;23.76;48.46
76122;BME280;70471;53.200;6.080;2023-06-22T08:37:49;101995.34;;;23.78;48.75
76122;BME280;70471;53.200;6.080;2023-06-22T08:42:42;101995.91;;;23.81;48.81
76122;BME280;70471;53.200;6.080;2023-06-22T08:47:34;101993.13;;;23.81;48.78
76122;BME280;70471;53.200;6.080;2023-06-22T08:52:25;101990.34;;;23.81;48.70
76122;BME280;70471;53.200;6.080;2023-06-22T08:57:18;101988.06;;;23.83;48.46
76122;BME280;70471;53.200;6.080;2023-06-22T09:02:10;101978.91;;;23.82;48.54
76122;BME280;70471;53.200;6.080;2023-06-22T09:07:02;101970.25;;;23.84;48.42
76122;BME280;70471;53.200;6.080;2023-06-22T09:11:54;101971.94;;;23.85;48.28
76122;BME280;70471;53.200;6.080;2023-06-22T09:16:47;101968.84;;;23.86;48.27
76122;BME280;70471;53.200;6.080;2023-06-22T09:21:38;101960.19;;;23.88;48.39
76122;BME280;70471;53.200;6.080;2023-06-22T09:26:30;101949.06;;;23.88;48.22
76122;BME280;70471;53.200;6.080;2023-06-22T09:31:21;101944.00;;;23.90;47.82
76122;BME280;70471;53.200;6.080;2023-06-22T09:36:17;101942.88;;;23.91;47.78
76122;BME280;70471;53.200;6.080;2023-06-22T09:41:08;101942.28;;;23.94;47.54
76122;BME280;70471;53.200;6.080;2023-06-22T09:46:00;101945.59;;;23.96;47.82
76122;BME280;70471;53.200;6.080;2023-06-22T09:50:52;101944.44;;;23.97;47.61
76122;BME280;70471;53.200;6.080;2023-06-22T09:55:45;101941.34;;;23.98;47.38
76122;BME280;70471;53.200;6.080;2023-06-22T10:00:36;101933.00;;;23.98;47.40
76122;BME280;70471;53.200;6.080;2023-06-22T10:05:27;101943.31;;;23.98;47.34
76122;BME280;70471;53.200;6.080;2023-06-22T10:10:19;101944.13;;;23.98;47.41
76122;BME280;70471;53.200;6.080;2023-06-22T10:15:12;101938.56;;;23.98;47.17
76122;BME280;70471;53.200;6.080;2023-06-22T10:20:04;101933.00;;;23.98;47.21
76122;BME280;70471;53.200;6.080;2023-06-22T10:25:01;101921.88;;;23.98;47.30
76122;BME280;70471;53.200;6.080;2023-06-22T10:29:53;101911.28;;;24.01;47.32
76122;BME280;70471;53.200;6.080;2023-06-22T10:34:46;101909.31;;;24.01;47.04
76122;BME280;70471;53.200;6.080;2023-06-22T10:39:37;101915.69;;;24.02;47.05
76122;BME280;70471;53.200;6.080;2023-06-22T10:44:29;101912.09;;;24.01;46.98
76122;BME280;70471;53.200;6.080;2023-06-22T10:49:20;101912.59;;;24.03;47.06
76122;BME280;70471;53.200;6.080;2023-06-22T10:54:13;101908.72;;;24.04;47.16
76122;BME280;70471;53.200;6.080;2023-06-22T10:59:07;101896.75;;;24.04;47.10
76122;BME280;70471;53.200;6.080;2023-06-22T11:03:58;101900.06;;;24.06;47.12
76122;BME280;70471;53.200;6.080;2023-06-22T11:08:50;101891.41;;;24.07;47.72
76122;BME280;70471;53.200;6.080;2023-06-22T11:13:43;101890.78;;;24.10;47.78
76122;BME280;70471;53.200;6.080;2023-06-22T11:18:34;101887.09;;;24.15;47.92
76122;BME280;70471;53.200;6.080;2023-06-22T11:23:26;101883.41;;;24.20;47.90
76122;BME280;70471;53.200;6.080;2023-06-22T11:28:18;101892.47;;;24.25;47.49
76122;BME280;70471;53.200;6.080;2023-06-22T11:33:11;101887.66;;;24.31;47.23
76122;BME280;70471;53.200;6.080;2023-06-22T11:38:02;101892.09;;;24.32;46.99
76122;BME280;70471;53.200;6.080;2023-06-22T11:42:55;101893.72;;;24.33;46.94
76122;BME280;70471;53.200;6.080;2023-06-22T11:47:46;101884.56;;;24.32;47.08
76122;BME280;70471;53.200;6.080;2023-06-22T11:52:39;101890.66;;;24.34;47.01
76122;BME280;70471;53.200;6.080;2023-06-22T11:57:33;101877.53;;;24.35;46.90
76122;BME280;70471;53.200;6.080;2023-06-22T12:02:24;101872.50;;;24.37;46.59
76122;BME280;70471;53.200;6.080;2023-06-22T12:07:15;101874.13;;;24.38;46.95
76122;BME280;70471;53.200;6.080;2023-06-22T12:12:09;101871.34;;;24.38;46.90
76122;BME280;70471;53.200;6.080;2023-06-22T12:17:00;101868.34;;;24.34;46.88
76122;BME280;70471;53.200;6.080;2023-06-22T12:21:52;101864.84;;;24.29;46.98
76122;BME280;70471;53.200;6.080;2023-06-22T12:26:43;101863.09;;;24.33;47.08
76122;BME280;70471;53.200;6.080;2023-06-22T12:31:36;101857.22;;;24.34;47.18
76122;BME280;70471;53.200;6.080;2023-06-22T12:36:29;101850.22;;;24.37;47.07
76122;BME280;70471;53.200;6.080;2023-06-22T12:41:20;101839.06;;;24.37;46.66
76122;BME280;70471;53.200;6.080;2023-06-22T12:46:11;101836.00;;;24.39;47.03
76122;BME280;70471;53.200;6.080;2023-06-22T12:51:04;101842.38;;;24.39;47.24
76122;BME280;70471;53.200;6.080;2023-06-22T12:55:56;101842.88;;;24.41;46.90
76122;BME280;70471;53.200;6.080;2023-06-22T13:00:48;101840.94;;;24.42;47.00
76122;BME280;70471;53.200;6.080;2023-06-22T13:05:40;101840.38;;;24.45;46.93
76122;BME280;70471;53.200;6.080;2023-06-22T13:10:33;101846.75;;;24.45;47.01
76122;BME280;70471;53.200;6.080;2023-06-22T13:15:24;101840.88;;;24.47;47.00
76122;BME280;70471;53.200;6.080;2023-06-22T13:20:16;101841.69;;;24.47;46.80
76122;BME280;70471;53.200;6.080;2023-06-22T13:25:08;101834.19;;;24.48;46.72
76122;BME280;70471;53.200;6.080;2023-06-22T13:30:04;101836.66;;;24.49;46.89
76122;BME280;70471;53.200;6.080;2023-06-22T13:34:55;101842.22;;;24.49;46.98
76122;BME280;70471;53.200;6.080;2023-06-22T13:39:47;101828.31;;;24.49;47.11
76122;BME280;70471;53.200;6.080;2023-06-22T13:44:38;101835.81;;;24.49;46.93
76122;BME280;70471;53.200;6.080;2023-06-22T13:49:31;101848.63;;;24.50;47.09
76122;BME280;70471;53.200;6.080;2023-06-22T13:54:23;101836.00;;;24.52;47.08
76122;BME280;70471;53.200;6.080;2023-06-22T13:59:14;101830.44;;;24.52;47.16
76122;BME280;70471;53.200;6.080;2023-06-22T14:04:05;101830.44;;;24.52;46.95
76122;BME280;70471;53.200;6.080;2023-06-22T14:08:58;101826.53;;;24.54;47.03
76122;BME280;70471;53.200;6.080;2023-06-22T14:13:50;101818.97;;;24.54;46.81
76122;BME280;70471;53.200;6.080;2023-06-22T14:18:42;101817.88;;;24.55;46.91
76122;BME280;70471;53.200;6.080;2023-06-22T14:23:33;101813.09;;;24.56;47.00
76122;BME280;70471;53.200;6.080;2023-06-22T14:28:26;101813.09;;;24.56;46.86
76122;BME280;70471;53.200;6.080;2023-06-22T14:33:17;101803.94;;;24.55;47.14
76122;BME280;70471;53.200;6.080;2023-06-22T14:38:09;101790.81;;;24.56;46.91
76122;BME280;70471;53.200;6.080;2023-06-22T14:43:00;101784.22;;;24.51;47.07
76122;BME280;70471;53.200;6.080;2023-06-22T14:47:53;101788.88;;;24.56;47.13
76122;BME280;70471;53.200;6.080;2023-06-22T14:52:45;101784.94;;;24.57;47.20
76122;BME280;70471;53.200;6.080;2023-06-22T14:57:36;101772.97;;;24.57;46.90
76122;BME280;70471;53.200;6.080;2023-06-22T15:02:28;101763.50;;;24.58;46.92
76122;BME280;70471;53.200;6.080;2023-06-22T15:07:21;101760.69;;;24.58;47.10
76122;BME280;70471;53.200;6.080;2023-06-22T15:12:12;101744.81;;;24.58;47.12
76122;BME280;70471;53.200;6.080;2023-06-22T15:17:04;101740.88;;;24.59;47.07
76122;BME280;70471;53.200;6.080;2023-06-22T15:21:56;101741.69;;;24.60;46.86
76122;BME280;70471;53.200;6.080;2023-06-22T15:26:49;101741.69;;;24.60;46.90
76122;BME280;70471;53.200;6.080;2023-06-22T15:31:41;101730.56;;;24.60;47.13
76122;BME280;70471;53.200;6.080;2023-06-22T15:36:32;101729.75;;;24.59;47.24
76122;BME280;70471;53.200;6.080;2023-06-22T15:41:24;101725.50;;;24.62;47.31
76122;BME280;70471;53.200;6.080;2023-06-22T15:46:17;101713.53;;;24.61;47.27
76122;BME280;70471;53.200;6.080;2023-06-22T15:51:08;101715.19;;;24.62;47.14
76122;BME280;70471;53.200;6.080;2023-06-22T15:56:00;101712.41;;;24.62;47.45
76122;BME280;70471;53.200;6.080;2023-06-22T16:00:52;101704.84;;;24.63;47.26
76122;BME280;70471;53.200;6.080;2023-06-22T16:05:45;101705.97;;;24.62;47.03
76122;BME280;70471;53.200;6.080;2023-06-22T16:10:37;101698.78;;;24.61;47.33
76122;BME280;70471;53.200;6.080;2023-06-22T16:15:28;101693.22;;;24.61;47.43
76122;BME280;70471;53.200;6.080;2023-06-22T16:20:20;101691.75;;;24.63;47.39
76122;BME280;70471;53.200;6.080;2023-06-22T16:25:13;101683.69;;;24.62;47.44
76122;BME280;70471;53.200;6.080;2023-06-22T16:30:06;101678.13;;;24.62;47.38
76122;BME280;70471;53.200;6.080;2023-06-22T16:34:58;101681.22;;;24.60;47.27
76122;BME280;70471;53.200;6.080;2023-06-22T16:39:49;101689.28;;;24.62;47.27
76122;BME280;70471;53.200;6.080;2023-06-22T16:44:42;101698.78;;;24.61;47.50
76122;BME280;70471;53.200;6.080;2023-06-22T16:49:34;101710.75;;;24.61;47.28
76122;BME280;70471;53.200;6.080;2023-06-22T16:54:28;101700.41;;;24.62;47.26
76122;BME280;70471;53.200;6.080;2023-06-22T16:59:20;101701.56;;;24.61;47.17
76122;BME280;70471;53.200;6.080;2023-06-22T17:04:16;101698.78;;;24.61;47.22
76122;BME280;70471;53.200;6.080;2023-06-22T17:09:13;101689.56;;;24.60;47.38
76122;BME280;70471;53.200;6.080;2023-06-22T17:14:06;101694.34;;;24.60;47.26
76122;BME280;70471;53.200;6.080;2023-06-22T17:18:58;101684.31;;;24.59;47.48
76122;BME280;70471;53.200;6.080;2023-06-22T17:23:55;101685.16;;;24.59;46.97
76122;BME280;70471;53.200;6.080;2023-06-22T17:28:49;101696.31;;;24.59;47.05
76122;BME280;70471;53.200;6.080;2023-06-22T17:33:41;101692.69;;;24.59;47.21
76122;BME280;70471;53.200;6.080;2023-06-22T17:38:35;101708.59;;;24.58;47.22
76122;BME280;70471;53.200;6.080;2023-06-22T17:43:28;101710.56;;;24.58;47.32
76122;BME280;70471;53.200;6.080;2023-06-22T17:48:20;101716.13;;;24.58;47.10
76122;BME280;70471;53.200;6.080;2023-06-22T17:53:13;101721.69;;;24.58;47.36
76122;BME280;70471;53.200;6.080;2023-06-22T17:58:05;101731.19;;;24.57;47.20
76122;BME280;70471;53.200;6.080;2023-06-22T18:02:58;101732.84;;;24.58;47.20
76122;BME280;70471;53.200;6.080;2023-06-22T18:07:50;101743.97;;;24.58;47.14
76122;BME280;70471;53.200;6.080;2023-06-22T18:12:43;101757.38;;;24.56;47.51
76122;BME280;70471;53.200;6.080;2023-06-22T18:17:36;101755.44;;;24.56;47.10
76122;BME280;70471;53.200;6.080;2023-06-22T18:22:29;101759.03;;;24.57;47.11
76122;BME280;70471;53.200;6.080;2023-06-22T18:27:22;101764.09;;;24.55;47.19
76122;BME280;70471;53.200;6.080;2023-06-22T18:32:13;101774.94;;;24.56;46.95
76122;BME280;70471;53.200;6.080;2023-06-22T18:37:08;101783.63;;;24.55;47.21
76122;BME280;70471;53.200;6.080;2023-06-22T18:42:02;101794.75;;;24.55;46.91
76122;BME280;70471;53.200;6.080;2023-06-22T18:46:57;101795.88;;;24.54;47.21
76122;BME280;70471;53.200;6.080;2023-06-22T18:51:50;101780.81;;;24.55;46.76
76122;BME280;70471;53.200;6.080;2023-06-22T18:56:51;101780.28;;;24.52;47.15
76122;BME280;70471;53.200;6.080;2023-06-22T19:01:45;101787.53;;;24.54;47.25
76122;BME280;70471;53.200;6.080;2023-06-22T19:06:54;101779.47;;;24.52;46.98
76122;BME280;70471;53.200;6.080;2023-06-22T19:11:46;101777.19;;;24.54;46.64
76122;BME280;70471;53.200;6.080;2023-06-22T19:16:39;101771.94;;;24.52;47.21
76122;BME280;70471;53.200;6.080;2023-06-22T19:21:31;101763.56;;;24.52;47.16
76122;BME280;70471;53.200;6.080;2023-06-22T19:26:23;101754.41;;;24.52;46.85
76122;BME280;70471;53.200;6.080;2023-06-22T19:31:15;101749.44;;;24.49;46.86
76122;BME280;70471;53.200;6.080;2023-06-22T19:36:07;101750.78;;;24.51;46.84
76122;BME280;70471;53.200;6.080;2023-06-22T19:41:00;101749.97;;;24.51;47.10
76122;BME280;70471;53.200;6.080;2023-06-22T19:45:52;101746.34;;;24.50;46.89
76122;BME280;70471;53.200;6.080;2023-06-22T19:50:44;101739.16;;;24.49;47.01
76122;BME280;70471;53.200;6.080;2023-06-22T19:55:37;101752.22;;;24.49;46.87
76122;BME280;70471;53.200;6.080;2023-06-22T20:00:32;101754.72;;;24.50;47.01
76122;BME280;70471;53.200;6.080;2023-06-22T20:05:24;101767.50;;;24.51;47.14
76122;BME280;70471;53.200;6.080;2023-06-22T20:10:18;101765.84;;;24.50;47.17
76122;BME280;70471;53.200;6.080;2023-06-22T20:15:20;101761.44;;;24.49;46.83
76122;BME280;70471;53.200;6.080;2023-06-22T20:20:20;101771.41;;;24.50;47.03
76122;BME280;70471;53.200;6.080;2023-06-22T20:25:12;101775.88;;;24.51;47.33
76122;BME280;70471;53.200;6.080;2023-06-22T20:30:12;101788.13;;;24.50;47.27
76122;BME280;70471;53.200;6.080;2023-06-22T20:35:04;101784.84;;;24.48;47.78
76122;BME280;70471;53.200;6.080;2023-06-22T20:39:57;101790.09;;;24.50;47.54
76122;BME280;70471;53.200;6.080;2023-06-22T20:44:49;101781.75;;;24.50;47.57
76122;BME280;70471;53.200;6.080;2023-06-22T20:49:41;101780.28;;;24.52;47.24
76122;BME280;70471;53.200;6.080;2023-06-22T20:54:32;101775.25;;;24.55;47.72
76122;BME280;70471;53.200;6.080;2023-06-22T20:59:25;101784.13;;;24.57;47.42
76122;BME280;70471;53.200;6.080;2023-06-22T21:04:17;101788.56;;;24.58;47.43
76122;BME280;70471;53.200;6.080;2023-06-22T21:09:08;101792.38;;;24.62;47.39
76122;BME280;70471;53.200;6.080;2023-06-22T21:14:00;101794.03;;;24.63;47.27
76122;BME280;70471;53.200;6.080;2023-06-22T21:18:53;101782.25;;;24.66;46.88
76122;BME280;70471;53.200;6.080;2023-06-22T21:23:44;101776.38;;;24.67;46.78
76122;BME280;70471;53.200;6.080;2023-06-22T21:28:35;101771.00;;;24.71;46.53
76122;BME280;70471;53.200;6.080;2023-06-22T21:33:27;101768.72;;;24.73;44.69
76122;BME280;70471;53.200;6.080;2023-06-22T21:38:20;101765.44;;;24.71;45.14
76122;BME280;70471;53.200;6.080;2023-06-22T21:43:11;101768.00;;;24.67;45.00
76122;BME280;70471;53.200;6.080;2023-06-22T21:48:04;101770.59;;;24.64;45.03
76122;BME280;70471;53.200;6.080;2023-06-22T21:52:56;101760.09;;;24.61;45.61
76122;BME280;70471;53.200;6.080;2023-06-22T21:57:48;101778.53;;;24.57;45.59
76122;BME280;70471;53.200;6.080;2023-06-22T22:02:40;101792.28;;;24.53;45.80
76122;BME280;70471;53.200;6.080;2023-06-22T22:07:31;101802.06;;;24.50;46.02
76122;BME280;70471;53.200;6.080;2023-06-22T22:12:23;101807.13;;;24.48;46.05
76122;BME280;70471;53.200;6.080;2023-06-22T22:17:15;101819.72;;;24.46;46.12
76122;BME280;70471;53.200;6.080;2023-06-22T22:22:07;101826.13;;;24.46;46.22
76122;BME280;70471;53.200;6.080;2023-06-22T22:26:59;101826.72;;;24.43;45.81
76122;BME280;70471;53.200;6.080;2023-06-22T22:31:50;101831.53;;;24.38;46.13
76122;BME280;70471;53.200;6.080;2023-06-22T22:36:43;101822.97;;;24.34;46.06
76122;BME280;70471;53.200;6.080;2023-06-22T22:41:34;101824.41;;;24.31;46.34
76122;BME280;70471;53.200;6.080;2023-06-22T22:46:26;101817.81;;;24.27;46.21
76122;BME280;70471;53.200;6.080;2023-06-22T22:51:18;101817.28;;;24.25;46.54
76122;BME280;70471;53.200;6.080;2023-06-22T22:56:11;101810.38;;;24.23;46.54
76122;BME280;70471;53.200;6.080;2023-06-22T23:01:03;101813.47;;;24.21;46.51
76122;BME280;70471;53.200;6.080;2023-06-22T23:05:54;101812.13;;;24.19;46.67
76122;BME280;70471;53.200;6.080;2023-06-22T23:10:46;101820.47;;;24.19;46.60
76122;BME280;70471;53.200;6.080;2023-06-22T23:15:39;101824.38;;;24.18;46.69
76122;BME280;70471;53.200;6.080;2023-06-22T23:20:31;101832.22;;;24.15;46.72
76122;BME280;70471;53.200;6.080;2023-06-22T23:25:23;101832.22;;;24.15;46.91
76122;BME280;70471;53.200;6.080;2023-06-22T23:30:14;101832.22;;;24.15;46.77
76122;BME280;70471;53.200;6.080;2023-06-22T23:35:08;101837.59;;;24.12;47.06
76122;BME280;70471;53.200;6.080;2023-06-22T23:40:00;101843.47;;;24.10;47.21
76122;BME280;70471;53.200;6.080;2023-06-22T23:44:52;101841.28;;;24.07;47.15
76122;BME280;70471;53.200;6.080;2023-06-22T23:49:43;101824.88;;;24.06;47.07
76122;BME280;70471;53.200;6.080;2023-06-22T23:54:36;101834.06;;;24.06;47.16
76122;BME280;70471;53.200;6.080;2023-06-22T23:59:28;101836.63;;;24.03;47.30
